sensor_id;sensor_type;location;lat;lon;timestamp;temperature;humidity
8715;DHT22;4394;51.208;8.904;2024-03-02T00:01:00;7.10;99.90
8715;DHT22;4394;51.208;8.904;2024-03-02T00:03:48;7.00;99.90
8715;DHT22;4394;51.208;8.904;2024-03-02T00:06:38;7.10;99.90
8715;DHT22;4394;51.208;8.904;2024-03-02T00:09:27;7.10;99.90
8715;DHT22;4394;51.208;8.904;2024-03-02T00:12:15;7.10;99.90
8715;DHT22;4394;51.208;8.904;2024-03-02T00:15:06;7.00;99.90
8715;DHT22;4394;51.208;8.904;2024-03-02T00:17:55;7.10;99.90
8715;DHT22;4394;51.208;8.904;2024-03-02T00:20:44;7.00;99.90
8715;DHT22;4394;51.208;8.904;2024-03-02T00:23:35;7.00;99.90
8715;DHT22;4394;51.208;8.904;2024-03-02T00:26:23;7.00;99.90
8715;DHT22;4394;51.208;8.904;2024-03-02T00:29:15;7.10;99.90
8715;DHT22;4394;51.208;8.904;2024-03-02T00:32:12;7.00;99.90
8715;DHT22;4394;51.208;8.904;2024-03-02T00:35:03;7.00;99.90
8715;DHT22;4394;51.208;8.904;2024-03-02T00:37:52;7.00;99.90
8715;DHT22;4394;51.208;8.904;2024-03-02T00:40:42;6.90;99.90
8715;DHT22;4394;51.208;8.904;2024-03-02T00:43:45;6.90;99.90
8715;DHT22;4394;51.208;8.904;2024-03-02T00:46:36;6.90;99.90
8715;DHT22;4394;51.208;8.904;2024-03-02T00:49:25;6.90;99.90
8715;DHT22;4394;51.208;8.904;2024-03-02T00:52:15;6.90;99.90
8715;DHT22;4394;51.208;8.904;2024-03-02T00:55:04;6.90;99.90
8715;DHT22;4394;51.208;8.904;2024-03-02T00:57:54;6.90;99.90
8715;DHT22;4394;51.208;8.904;2024-03-02T01:00:42;6.90;99.90
8715;DHT22;4394;51.208;8.904;2024-03-02T01:03:31;6.90;99.90
8715;DHT22;4394;51.208;8.904;2024-03-02T01:06:20;6.90;99.90
8715;DHT22;4394;51.208;8.904;2024-03-02T01:09:09;7.00;99.90
8715;DHT22;4394;51.208;8.904;2024-03-02T01:11:59;7.00;99.90
8715;DHT22;4394;51.208;8.904;2024-03-02T01:14:49;6.90;99.90
8715;DHT22;4394;51.208;8.904;2024-03-02T01:17:37;6.90;99.90
8715;DHT22;4394;51.208;8.904;2024-03-02T01:20:25;6.80;99.90
8715;DHT22;4394;51.208;8.904;2024-03-02T01:23:14;6.90;99.90
8715;DHT22;4394;51.208;8.904;2024-03-02T01:26:02;6.90;99.90
8715;DHT22;4394;51.208;8.904;2024-03-02T01:28:50;6.80;99.90
8715;DHT22;4394;51.208;8.904;2024-03-02T01:31:40;6.80;99.90
8715;DHT22;4394;51.208;8.904;2024-03-02T01:34:29;6.80;99.90
8715;DHT22;4394;51.208;8.904;2024-03-02T01:37:17;6.80;99.90
8715;DHT22;4394;51.208;8.904;2024-03-02T01:40:06;6.80;99.90
8715;DHT22;4394;51.208;8.904;2024-03-02T01:42:56;6.80;99.90
8715;DHT22;4394;51.208;8.904;2024-03-02T01:45:45;6.80;99.90
8715;DHT22;4394;51.208;8.904;2024-03-02T01:48:35;6.80;99.90
8715;DHT22;4394;51.208;8.904;2024-03-02T01:51:24;6.80;99.90
8715;DHT22;4394;51.208;8.904;2024-03-02T01:54:12;6.80;99.90
8715;DHT22;4394;51.208;8.904;2024-03-02T01:57:00;6.70;99.90
8715;DHT22;4394;51.208;8.904;2024-03-02T01:59:49;6.80;99.90
8715;DHT22;4394;51.208;8.904;2024-03-02T02:02:38;6.80;99.90
8715;DHT22;4394;51.208;8.904;2024-03-02T02:05:28;6.70;99.90
8715;DHT22;4394;51.208;8.904;2024-03-02T02:08:16;6.80;99.90
8715;DHT22;4394;51.208;8.904;2024-03-02T02:11:05;6.70;99.90
8715;DHT22;4394;51.208;8.904;2024-03-02T02:13:54;6.70;99.90
8715;DHT22;4394;51.208;8.904;2024-03-02T02:16:43;6.80;99.90
8715;DHT22;4394;51.208;8.904;2024-03-02T02:19:31;6.80;99.90
8715;DHT22;4394;51.208;8.904;2024-03-02T02:22:21;6.70;99.90
8715;DHT22;4394;51.208;8.904;2024-03-02T02:25:10;6.70;99.90
8715;DHT22;4394;51.208;8.904;2024-03-02T02:27:59;6.70;99.90
8715;DHT22;4394;51.208;8.904;2024-03-02T02:30:47;6.70;99.90
8715;DHT22;4394;51.208;8.904;2024-03-02T02:33:39;6.70;99.90
8715;DHT22;4394;51.208;8.904;2024-03-02T02:36:28;6.70;99.90
8715;DHT22;4394;51.208;8.904;2024-03-02T02:39:20;6.70;99.90
8715;DHT22;4394;51.208;8.904;2024-03-02T02:42:09;6.70;99.90
8715;DHT22;4394;51.208;8.904;2024-03-02T02:44:57;6.70;99.90
8715;DHT22;4394;51.208;8.904;2024-03-02T02:47:45;6.70;99.90
8715;DHT22;4394;51.208;8.904;2024-03-02T02:50:34;6.60;99.90
8715;DHT22;4394;51.208;8.904;2024-03-02T02:53:22;6.60;99.90
8715;DHT22;4394;51.208;8.904;2024-03-02T02:56:12;6.60;99.90
8715;DHT22;4394;51.208;8.904;2024-03-02T02:59:00;6.60;99.90
8715;DHT22;4394;51.208;8.904;2024-03-02T03:01:49;6.60;99.90
8715;DHT22;4394;51.208;8.904;2024-03-02T03:04:40;6.60;99.90
8715;DHT22;4394;51.208;8.904;2024-03-02T03:07:28;6.60;99.90
8715;DHT22;4394;51.208;8.904;2024-03-02T03:10:17;6.60;99.90
8715;DHT22;4394;51.208;8.904;2024-03-02T03:13:07;6.60;99.90
8715;DHT22;4394;51.208;8.904;2024-03-02T03:15:56;6.60;99.90
8715;DHT22;4394;51.208;8.904;2024-03-02T03:18:44;6.60;99.90
8715;DHT22;4394;51.208;8.904;2024-03-02T03:21:33;6.60;99.90
8715;DHT22;4394;51.208;8.904;2024-03-02T03:24:21;6.60;99.90
8715;DHT22;4394;51.208;8.904;2024-03-02T03:27:10;6.60;99.90
8715;DHT22;4394;51.208;8.904;2024-03-02T03:30:00;6.60;99.90
8715;DHT22;4394;51.208;8.904;2024-03-02T03:32:48;6.60;99.90
8715;DHT22;4394;51.208;8.904;2024-03-02T03:35:36;6.60;99.90
8715;DHT22;4394;51.208;8.904;2024-03-02T03:38:25;6.50;99.90
8715;DHT22;4394;51.208;8.904;2024-03-02T03:41:13;6.50;99.90
8715;DHT22;4394;51.208;8.904;2024-03-02T03:44:02;6.50;99.90
8715;DHT22;4394;51.208;8.904;2024-03-02T03:46:52;6.40;99.90
8715;DHT22;4394;51.208;8.904;2024-03-02T03:49:40;6.40;99.90
8715;DHT22;4394;51.208;8.904;2024-03-02T03:52:29;6.40;99.90
8715;DHT22;4394;51.208;8.904;2024-03-02T03:55:17;6.40;99.90
8715;DHT22;4394;51.208;8.904;2024-03-02T03:58:05;6.40;99.90
8715;DHT22;4394;51.208;8.904;2024-03-02T04:00:54;6.40;99.90
8715;DHT22;4394;51.208;8.904;2024-03-02T04:03:43;6.40;99.90
8715;DHT22;4394;51.208;8.904;2024-03-02T04:06:32;6.30;99.90
8715;DHT22;4394;51.208;8.904;2024-03-02T04:09:21;6.30;99.90
8715;DHT22;4394;51.208;8.904;2024-03-02T04:12:09;6.30;99.90
8715;DHT22;4394;51.208;8.904;2024-03-02T04:15:00;6.30;99.90
8715;DHT22;4394;51.208;8.904;2024-03-02T04:17:50;6.30;99.90
8715;DHT22;4394;51.208;8.904;2024-03-02T04:20:40;6.30;99.90
8715;DHT22;4394;51.208;8.904;2024-03-02T04:23:28;6.30;99.90
8715;DHT22;4394;51.208;8.904;2024-03-02T04:26:17;6.30;99.90
8715;DHT22;4394;51.208;8.904;2024-03-02T04:29:09;6.30;99.90
8715;DHT22;4394;51.208;8.904;2024-03-02T04:31:57;6.30;99.90
8715;DHT22;4394;51.208;8.904;2024-03-02T04:34:45;6.30;99.90
8715;DHT22;4394;51.208;8.904;2024-03-02T04:37:35;6.30;99.90
8715;DHT22;4394;51.208;8.904;2024-03-02T04:40:23;6.30;99.90
8715;DHT22;4394;51.208;8.904;2024-03-02T04:43:12;6.20;99.90
8715;DHT22;4394;51.208;8.904;2024-03-02T04:46:04;6.20;99.90
8715;DHT22;4394;51.208;8.904;2024-03-02T04:48:53;6.20;99.90
8715;DHT22;4394;51.208;8.904;2024-03-02T04:51:44;6.10;99.90
8715;DHT22;4394;51.208;8.904;2024-03-02T04:54:33;6.10;99.90
8715;DHT22;4394;51.208;8.904;2024-03-02T04:57:43;6.00;99.90
8715;DHT22;4394;51.208;8.904;2024-03-02T05:00:33;6.00;99.90
8715;DHT22;4394;51.208;8.904;2024-03-02T05:03:22;6.00;99.90
8715;DHT22;4394;51.208;8.904;2024-03-02T05:06:11;6.00;99.90
8715;DHT22;4394;51.208;8.904;2024-03-02T05:09:00;6.10;99.90
8715;DHT22;4394;51.208;8.904;2024-03-02T05:11:50;6.10;99.90
8715;DHT22;4394;51.208;8.904;2024-03-02T05:14:59;6.10;99.90
8715;DHT22;4394;51.208;8.904;2024-03-02T05:17:47;6.10;99.90
8715;DHT22;4394;51.208;8.904;2024-03-02T05:20:35;6.10;99.90
8715;DHT22;4394;51.208;8.904;2024-03-02T05:23:24;6.10;99.90
8715;DHT22;4394;51.208;8.904;2024-03-02T05:26:13;6.10;99.90
8715;DHT22;4394;51.208;8.904;2024-03-02T05:29:03;6.10;99.90
8715;DHT22;4394;51.208;8.904;2024-03-02T05:31:51;6.10;99.90
8715;DHT22;4394;51.208;8.904;2024-03-02T05:34:40;6.20;99.90
8715;DHT22;4394;51.208;8.904;2024-03-02T05:37:28;6.20;99.90
8715;DHT22;4394;51.208;8.904;2024-03-02T05:40:16;6.20;99.90
8715;DHT22;4394;51.208;8.904;2024-03-02T05:43:08;6.10;99.90
8715;DHT22;4394;51.208;8.904;2024-03-02T05:45:57;6.10;99.90
8715;DHT22;4394;51.208;8.904;2024-03-02T05:48:46;6.00;99.90
8715;DHT22;4394;51.208;8.904;2024-03-02T05:51:35;6.00;99.90
8715;DHT22;4394;51.208;8.904;2024-03-02T05:54:23;6.00;99.90
8715;DHT22;4394;51.208;8.904;2024-03-02T05:57:12;6.00;99.90
8715;DHT22;4394;51.208;8.904;2024-03-02T06:00:20;6.00;99.90
8715;DHT22;4394;51.208;8.904;2024-03-02T06:03:11;6.00;99.90
8715;DHT22;4394;51.208;8.904;2024-03-02T06:06:00;6.00;99.90
8715;DHT22;4394;51.208;8.904;2024-03-02T06:08:48;6.00;99.90
8715;DHT22;4394;51.208;8.904;2024-03-02T06:11:37;5.90;99.90
8715;DHT22;4394;51.208;8.904;2024-03-02T06:14:25;5.90;99.90
8715;DHT22;4394;51.208;8.904;2024-03-02T06:17:15;5.90;99.90
8715;DHT22;4394;51.208;8.904;2024-03-02T06:20:06;5.90;99.90
8715;DHT22;4394;51.208;8.904;2024-03-02T06:22:56;5.90;99.90
8715;DHT22;4394;51.208;8.904;2024-03-02T06:25:44;6.00;99.90
8715;DHT22;4394;51.208;8.904;2024-03-02T06:28:32;6.00;99.90
8715;DHT22;4394;51.208;8.904;2024-03-02T06:31:22;6.00;99.90
8715;DHT22;4394;51.208;8.904;2024-03-02T06:34:10;6.00;99.90
8715;DHT22;4394;51.208;8.904;2024-03-02T06:36:59;6.10;99.90
8715;DHT22;4394;51.208;8.904;2024-03-02T06:39:49;6.10;99.90
8715;DHT22;4394;51.208;8.904;2024-03-02T06:42:37;6.10;99.90
8715;DHT22;4394;51.208;8.904;2024-03-02T06:45:25;6.10;99.90
8715;DHT22;4394;51.208;8.904;2024-03-02T06:48:16;6.10;99.90
8715;DHT22;4394;51.208;8.904;2024-03-02T06:51:08;6.20;99.90
8715;DHT22;4394;51.208;8.904;2024-03-02T06:53:59;6.20;99.90
8715;DHT22;4394;51.208;8.904;2024-03-02T06:56:48;6.20;99.90
8715;DHT22;4394;51.208;8.904;2024-03-02T06:59:37;6.20;99.90
8715;DHT22;4394;51.208;8.904;2024-03-02T07:02:25;6.20;99.90
8715;DHT22;4394;51.208;8.904;2024-03-02T07:05:15;6.20;99.90
8715;DHT22;4394;51.208;8.904;2024-03-02T07:08:05;6.20;99.90
8715;DHT22;4394;51.208;8.904;2024-03-02T07:10:56;6.20;99.90
8715;DHT22;4394;51.208;8.904;2024-03-02T07:13:45;6.30;99.90
8715;DHT22;4394;51.208;8.904;2024-03-02T07:16:33;6.30;99.90
8715;DHT22;4394;51.208;8.904;2024-03-02T07:19:22;6.30;99.90
8715;DHT22;4394;51.208;8.904;2024-03-02T07:22:11;6.30;99.90
8715;DHT22;4394;51.208;8.904;2024-03-02T07:25:00;6.40;99.90
8715;DHT22;4394;51.208;8.904;2024-03-02T07:27:51;6.40;99.90
8715;DHT22;4394;51.208;8.904;2024-03-02T07:30:41;6.30;99.90
8715;DHT22;4394;51.208;8.904;2024-03-02T07:33:30;6.40;99.90
8715;DHT22;4394;51.208;8.904;2024-03-02T07:36:19;6.40;99.90
8715;DHT22;4394;51.208;8.904;2024-03-02T07:39:09;6.40;99.90
8715;DHT22;4394;51.208;8.904;2024-03-02T07:41:58;6.40;99.90
8715;DHT22;4394;51.208;8.904;2024-03-02T07:44:49;6.40;99.90
8715;DHT22;4394;51.208;8.904;2024-03-02T07:47:38;6.40;99.90
8715;DHT22;4394;51.208;8.904;2024-03-02T07:50:30;6.40;99.90
8715;DHT22;4394;51.208;8.904;2024-03-02T07:53:24;6.40;99.90
8715;DHT22;4394;51.208;8.904;2024-03-02T07:56:13;6.40;99.90
8715;DHT22;4394;51.208;8.904;2024-03-02T07:59:04;6.40;99.90
8715;DHT22;4394;51.208;8.904;2024-03-02T08:01:57;6.40;99.90
8715;DHT22;4394;51.208;8.904;2024-03-02T08:04:46;6.40;99.90
8715;DHT22;4394;51.208;8.904;2024-03-02T08:07:37;6.40;99.90
8715;DHT22;4394;51.208;8.904;2024-03-02T08:10:26;6.40;99.90
8715;DHT22;4394;51.208;8.904;2024-03-02T08:13:16;6.40;99.90
8715;DHT22;4394;51.208;8.904;2024-03-02T08:16:05;6.50;99.90
8715;DHT22;4394;51.208;8.904;2024-03-02T08:18:58;6.50;99.90
8715;DHT22;4394;51.208;8.904;2024-03-02T08:21:49;6.50;99.90
8715;DHT22;4394;51.208;8.904;2024-03-02T08:24:37;6.50;99.90
8715;DHT22;4394;51.208;8.904;2024-03-02T08:27:26;6.60;99.90
8715;DHT22;4394;51.208;8.904;2024-03-02T08:30:16;6.70;99.90
8715;DHT22;4394;51.208;8.904;2024-03-02T08:33:05;6.80;99.90
8715;DHT22;4394;51.208;8.904;2024-03-02T08:35:56;6.90;99.90
8715;DHT22;4394;51.208;8.904;2024-03-02T08:38:45;7.00;99.90
8715;DHT22;4394;51.208;8.904;2024-03-02T08:41:36;7.10;99.90
8715;DHT22;4394;51.208;8.904;2024-03-02T08:44:24;7.20;99.90
8715;DHT22;4394;51.208;8.904;2024-03-02T08:47:14;7.30;99.90
8715;DHT22;4394;51.208;8.904;2024-03-02T08:50:04;7.40;99.90
8715;DHT22;4394;51.208;8.904;2024-03-02T08:52:56;7.50;99.90
8715;DHT22;4394;51.208;8.904;2024-03-02T08:55:45;7.70;99.90
8715;DHT22;4394;51.208;8.904;2024-03-02T08:58:36;7.80;99.90
8715;DHT22;4394;51.208;8.904;2024-03-02T09:01:24;7.90;99.90
8715;DHT22;4394;51.208;8.904;2024-03-02T09:04:15;7.90;99.90
8715;DHT22;4394;51.208;8.904;2024-03-02T09:07:04;8.00;99.90
8715;DHT22;4394;51.208;8.904;2024-03-02T09:09:55;8.00;99.90
8715;DHT22;4394;51.208;8.904;2024-03-02T09:12:44;8.10;99.90
8715;DHT22;4394;51.208;8.904;2024-03-02T09:15:33;8.20;99.90
8715;DHT22;4394;51.208;8.904;2024-03-02T09:18:24;8.20;99.90
8715;DHT22;4394;51.208;8.904;2024-03-02T09:21:14;8.30;99.90
8715;DHT22;4394;51.208;8.904;2024-03-02T09:24:04;8.50;99.90
8715;DHT22;4394;51.208;8.904;2024-03-02T09:26:57;8.60;99.90
8715;DHT22;4394;51.208;8.904;2024-03-02T09:29:49;8.80;99.90
8715;DHT22;4394;51.208;8.904;2024-03-02T09:32:38;8.80;99.90
8715;DHT22;4394;51.208;8.904;2024-03-02T09:35:27;8.90;99.90
8715;DHT22;4394;51.208;8.904;2024-03-02T09:38:18;8.90;99.90
8715;DHT22;4394;51.208;8.904;2024-03-02T09:41:07;9.00;99.90
8715;DHT22;4394;51.208;8.904;2024-03-02T09:43:58;9.00;99.90
8715;DHT22;4394;51.208;8.904;2024-03-02T09:46:49;9.10;99.90
8715;DHT22;4394;51.208;8.904;2024-03-02T09:49:37;9.10;99.90
8715;DHT22;4394;51.208;8.904;2024-03-02T09:52:27;9.10;99.90
8715;DHT22;4394;51.208;8.904;2024-03-02T09:55:16;9.20;99.90
8715;DHT22;4394;51.208;8.904;2024-03-02T09:58:09;9.30;99.90
8715;DHT22;4394;51.208;8.904;2024-03-02T10:01:05;9.40;99.90
8715;DHT22;4394;51.208;8.904;2024-03-02T10:03:55;9.50;99.90
8715;DHT22;4394;51.208;8.904;2024-03-02T10:06:45;9.50;99.90
8715;DHT22;4394;51.208;8.904;2024-03-02T10:09:36;9.60;99.90
8715;DHT22;4394;51.208;8.904;2024-03-02T10:12:26;9.60;99.90
8715;DHT22;4394;51.208;8.904;2024-03-02T10:15:24;9.70;99.90
8715;DHT22;4394;51.208;8.904;2024-03-02T10:18:26;9.80;99.90
8715;DHT22;4394;51.208;8.904;2024-03-02T10:21:18;9.80;99.90
8715;DHT22;4394;51.208;8.904;2024-03-02T10:24:10;10.00;99.90
8715;DHT22;4394;51.208;8.904;2024-03-02T10:27:00;10.00;99.90
8715;DHT22;4394;51.208;8.904;2024-03-02T10:29:50;10.10;99.90
8715;DHT22;4394;51.208;8.904;2024-03-02T10:32:39;10.30;99.90
8715;DHT22;4394;51.208;8.904;2024-03-02T10:35:32;10.30;99.90
8715;DHT22;4394;51.208;8.904;2024-03-02T10:38:25;10.50;99.90
8715;DHT22;4394;51.208;8.904;2024-03-02T10:41:17;10.50;99.90
8715;DHT22;4394;51.208;8.904;2024-03-02T10:44:10;10.60;99.90
8715;DHT22;4394;51.208;8.904;2024-03-02T10:47:03;10.60;99.90
8715;DHT22;4394;51.208;8.904;2024-03-02T10:49:55;10.70;99.90
8715;DHT22;4394;51.208;8.904;2024-03-02T10:52:54;10.80;99.90
8715;DHT22;4394;51.208;8.904;2024-03-02T10:55:46;10.90;99.90
8715;DHT22;4394;51.208;8.904;2024-03-02T10:58:45;11.00;99.90
8715;DHT22;4394;51.208;8.904;2024-03-02T11:01:40;11.00;99.90
8715;DHT22;4394;51.208;8.904;2024-03-02T11:04:32;11.10;99.90
8715;DHT22;4394;51.208;8.904;2024-03-02T11:07:25;11.10;99.90
8715;DHT22;4394;51.208;8.904;2024-03-02T11:10:18;11.20;99.90
8715;DHT22;4394;51.208;8.904;2024-03-02T11:13:11;11.10;99.90
8715;DHT22;4394;51.208;8.904;2024-03-02T11:16:05;11.20;99.90
8715;DHT22;4394;51.208;8.904;2024-03-02T11:18:56;11.30;99.90
8715;DHT22;4394;51.208;8.904;2024-03-02T11:21:49;11.40;99.90
8715;DHT22;4394;51.208;8.904;2024-03-02T11:24:38;11.50;99.90
8715;DHT22;4394;51.208;8.904;2024-03-02T11:28:02;11.50;99.90
8715;DHT22;4394;51.208;8.904;2024-03-02T11:30:54;11.60;99.90
8715;DHT22;4394;51.208;8.904;2024-03-02T11:33:44;11.70;99.90
8715;DHT22;4394;51.208;8.904;2024-03-02T11:36:35;11.70;99.90
8715;DHT22;4394;51.208;8.904;2024-03-02T11:39:25;11.80;99.90
8715;DHT22;4394;51.208;8.904;2024-03-02T11:42:16;11.90;99.90
8715;DHT22;4394;51.208;8.904;2024-03-02T11:45:11;11.90;99.90
8715;DHT22;4394;51.208;8.904;2024-03-02T11:48:04;12.00;99.90
8715;DHT22;4394;51.208;8.904;2024-03-02T11:50:58;12.00;99.90
8715;DHT22;4394;51.208;8.904;2024-03-02T11:53:51;12.00;99.90
8715;DHT22;4394;51.208;8.904;2024-03-02T11:56:44;12.10;99.90
8715;DHT22;4394;51.208;8.904;2024-03-02T11:59:35;12.20;99.90
8715;DHT22;4394;51.208;8.904;2024-03-02T12:02:25;12.30;99.90
8715;DHT22;4394;51.208;8.904;2024-03-02T12:05:15;12.30;99.90
8715;DHT22;4394;51.208;8.904;2024-03-02T12:08:08;12.40;99.90
8715;DHT22;4394;51.208;8.904;2024-03-02T12:11:00;12.50;99.90
8715;DHT22;4394;51.208;8.904;2024-03-02T12:13:56;12.50;99.90
8715;DHT22;4394;51.208;8.904;2024-03-02T12:16:48;12.50;99.90
8715;DHT22;4394;51.208;8.904;2024-03-02T12:19:42;12.60;99.90
8715;DHT22;4394;51.208;8.904;2024-03-02T12:22:36;12.60;99.90
8715;DHT22;4394;51.208;8.904;2024-03-02T12:25:30;12.70;99.90
8715;DHT22;4394;51.208;8.904;2024-03-02T12:28:22;12.60;99.90
8715;DHT22;4394;51.208;8.904;2024-03-02T12:31:12;12.70;99.90
8715;DHT22;4394;51.208;8.904;2024-03-02T12:34:07;12.70;99.90
8715;DHT22;4394;51.208;8.904;2024-03-02T12:37:05;12.80;99.90
8715;DHT22;4394;51.208;8.904;2024-03-02T12:39:59;12.80;99.90
8715;DHT22;4394;51.208;8.904;2024-03-02T12:42:52;12.90;99.90
8715;DHT22;4394;51.208;8.904;2024-03-02T12:45:43;13.00;99.90
8715;DHT22;4394;51.208;8.904;2024-03-02T12:48:31;13.00;99.90
8715;DHT22;4394;51.208;8.904;2024-03-02T12:51:23;13.00;99.90
8715;DHT22;4394;51.208;8.904;2024-03-02T12:54:15;13.00;99.90
8715;DHT22;4394;51.208;8.904;2024-03-02T12:57:08;13.00;99.90
8715;DHT22;4394;51.208;8.904;2024-03-02T13:00:01;13.00;99.90
8715;DHT22;4394;51.208;8.904;2024-03-02T13:02:57;13.00;99.90
8715;DHT22;4394;51.208;8.904;2024-03-02T13:05:52;13.00;99.90
8715;DHT22;4394;51.208;8.904;2024-03-02T13:08:42;13.00;99.90
8715;DHT22;4394;51.208;8.904;2024-03-02T13:11:32;13.10;99.90
8715;DHT22;4394;51.208;8.904;2024-03-02T13:14:21;13.10;99.90
8715;DHT22;4394;51.208;8.904;2024-03-02T13:17:12;13.20;99.90
8715;DHT22;4394;51.208;8.904;2024-03-02T13:20:02;13.30;99.90
8715;DHT22;4394;51.208;8.904;2024-03-02T13:22:56;13.30;99.90
8715;DHT22;4394;51.208;8.904;2024-03-02T13:25:44;13.40;99.90
8715;DHT22;4394;51.208;8.904;2024-03-02T13:28:36;13.40;99.90
8715;DHT22;4394;51.208;8.904;2024-03-02T13:31:26;13.50;99.90
8715;DHT22;4394;51.208;8.904;2024-03-02T13:34:16;13.50;99.90
8715;DHT22;4394;51.208;8.904;2024-03-02T13:37:05;13.60;99.90
8715;DHT22;4394;51.208;8.904;2024-03-02T13:39:56;13.60;99.90
8715;DHT22;4394;51.208;8.904;2024-03-02T13:42:48;13.70;99.90
8715;DHT22;4394;51.208;8.904;2024-03-02T13:45:46;13.80;99.90
8715;DHT22;4394;51.208;8.904;2024-03-02T13:48:47;13.90;99.90
8715;DHT22;4394;51.208;8.904;2024-03-02T13:51:42;14.10;99.90
8715;DHT22;4394;51.208;8.904;2024-03-02T13:54:37;14.10;99.90
8715;DHT22;4394;51.208;8.904;2024-03-02T13:57:27;14.10;99.90
8715;DHT22;4394;51.208;8.904;2024-03-02T14:00:18;14.20;99.90
8715;DHT22;4394;51.208;8.904;2024-03-02T14:03:10;14.30;99.90
8715;DHT22;4394;51.208;8.904;2024-03-02T14:06:02;14.30;99.90
8715;DHT22;4394;51.208;8.904;2024-03-02T14:08:51;14.40;99.90
8715;DHT22;4394;51.208;8.904;2024-03-02T14:11:42;14.60;99.90
8715;DHT22;4394;51.208;8.904;2024-03-02T14:14:34;14.70;99.90
8715;DHT22;4394;51.208;8.904;2024-03-02T14:17:23;14.80;99.90
8715;DHT22;4394;51.208;8.904;2024-03-02T14:20:12;15.00;99.90
8715;DHT22;4394;51.208;8.904;2024-03-02T14:23:01;15.10;99.90
8715;DHT22;4394;51.208;8.904;2024-03-02T14:25:53;15.30;99.90
8715;DHT22;4394;51.208;8.904;2024-03-02T14:28:41;15.40;99.90
8715;DHT22;4394;51.208;8.904;2024-03-02T14:31:37;15.50;99.90
8715;DHT22;4394;51.208;8.904;2024-03-02T14:34:27;15.60;99.90
8715;DHT22;4394;51.208;8.904;2024-03-02T14:37:16;15.70;99.90
8715;DHT22;4394;51.208;8.904;2024-03-02T14:40:08;15.90;99.90
8715;DHT22;4394;51.208;8.904;2024-03-02T14:42:56;15.90;99.90
8715;DHT22;4394;51.208;8.904;2024-03-02T14:45:45;16.10;99.90
8715;DHT22;4394;51.208;8.904;2024-03-02T14:48:34;16.20;99.90
8715;DHT22;4394;51.208;8.904;2024-03-02T14:51:22;16.20;99.90
8715;DHT22;4394;51.208;8.904;2024-03-02T14:54:15;16.40;99.90
8715;DHT22;4394;51.208;8.904;2024-03-02T14:57:03;16.40;99.90
8715;DHT22;4394;51.208;8.904;2024-03-02T15:00:01;16.50;99.90
8715;DHT22;4394;51.208;8.904;2024-03-02T15:04:01;16.60;99.90
8715;DHT22;4394;51.208;8.904;2024-03-02T15:06:54;16.60;99.90
8715;DHT22;4394;51.208;8.904;2024-03-02T15:09:54;16.60;99.90
8715;DHT22;4394;51.208;8.904;2024-03-02T15:12:46;16.60;99.90
8715;DHT22;4394;51.208;8.904;2024-03-02T15:15:38;16.60;99.90
8715;DHT22;4394;51.208;8.904;2024-03-02T15:18:29;16.60;99.90
8715;DHT22;4394;51.208;8.904;2024-03-02T15:21:19;16.50;99.90
8715;DHT22;4394;51.208;8.904;2024-03-02T15:24:10;16.50;99.90
8715;DHT22;4394;51.208;8.904;2024-03-02T15:27:03;16.50;99.90
8715;DHT22;4394;51.208;8.904;2024-03-02T15:29:54;16.50;99.90
8715;DHT22;4394;51.208;8.904;2024-03-02T15:32:45;16.50;99.90
8715;DHT22;4394;51.208;8.904;2024-03-02T15:35:35;16.50;99.90
8715;DHT22;4394;51.208;8.904;2024-03-02T15:38:24;16.40;99.90
8715;DHT22;4394;51.208;8.904;2024-03-02T15:41:21;16.40;99.90
8715;DHT22;4394;51.208;8.904;2024-03-02T15:44:11;16.30;99.90
8715;DHT22;4394;51.208;8.904;2024-03-02T15:47:02;16.10;99.90
8715;DHT22;4394;51.208;8.904;2024-03-02T15:49:52;16.00;99.90
8715;DHT22;4394;51.208;8.904;2024-03-02T15:52:43;15.80;99.90
8715;DHT22;4394;51.208;8.904;2024-03-02T15:55:35;15.70;99.90
8715;DHT22;4394;51.208;8.904;2024-03-02T15:58:23;15.60;99.90
8715;DHT22;4394;51.208;8.904;2024-03-02T16:01:15;15.50;99.90
8715;DHT22;4394;51.208;8.904;2024-03-02T16:04:08;15.50;99.90
8715;DHT22;4394;51.208;8.904;2024-03-02T16:06:57;15.30;99.90
8715;DHT22;4394;51.208;8.904;2024-03-02T16:09:49;15.20;99.90
8715;DHT22;4394;51.208;8.904;2024-03-02T16:12:37;15.20;99.90
8715;DHT22;4394;51.208;8.904;2024-03-02T16:15:28;15.10;99.90
8715;DHT22;4394;51.208;8.904;2024-03-02T16:18:19;15.00;99.90
8715;DHT22;4394;51.208;8.904;2024-03-02T16:21:09;14.90;99.90
8715;DHT22;4394;51.208;8.904;2024-03-02T16:23:57;14.70;99.90
8715;DHT22;4394;51.208;8.904;2024-03-02T16:26:47;14.70;99.90
8715;DHT22;4394;51.208;8.904;2024-03-02T16:29:36;14.60;99.90
8715;DHT22;4394;51.208;8.904;2024-03-02T16:32:26;14.60;99.90
8715;DHT22;4394;51.208;8.904;2024-03-02T16:35:16;14.50;99.90
8715;DHT22;4394;51.208;8.904;2024-03-02T16:38:05;14.40;99.90
8715;DHT22;4394;51.208;8.904;2024-03-02T16:40:55;14.30;99.90
8715;DHT22;4394;51.208;8.904;2024-03-02T16:43:44;14.30;99.90
8715;DHT22;4394;51.208;8.904;2024-03-02T16:46:34;14.20;99.90
8715;DHT22;4394;51.208;8.904;2024-03-02T16:49:27;14.00;99.90
8715;DHT22;4394;51.208;8.904;2024-03-02T16:52:21;14.00;99.90
8715;DHT22;4394;51.208;8.904;2024-03-02T16:55:13;13.80;99.90
8715;DHT22;4394;51.208;8.904;2024-03-02T16:58:03;13.80;99.90
8715;DHT22;4394;51.208;8.904;2024-03-02T17:00:54;13.80;99.90
8715;DHT22;4394;51.208;8.904;2024-03-02T17:03:43;13.70;99.90
8715;DHT22;4394;51.208;8.904;2024-03-02T17:06:34;13.70;99.90
8715;DHT22;4394;51.208;8.904;2024-03-02T17:09:24;13.60;99.90
8715;DHT22;4394;51.208;8.904;2024-03-02T17:12:14;13.60;99.90
8715;DHT22;4394;51.208;8.904;2024-03-02T17:15:03;13.50;99.90
8715;DHT22;4394;51.208;8.904;2024-03-02T17:17:53;13.40;99.90
8715;DHT22;4394;51.208;8.904;2024-03-02T17:20:43;13.30;99.90
8715;DHT22;4394;51.208;8.904;2024-03-02T17:23:33;13.30;99.90
8715;DHT22;4394;51.208;8.904;2024-03-02T17:26:25;13.20;99.90
8715;DHT22;4394;51.208;8.904;2024-03-02T17:29:13;13.20;99.90
8715;DHT22;4394;51.208;8.904;2024-03-02T17:32:04;13.10;99.90
8715;DHT22;4394;51.208;8.904;2024-03-02T17:34:59;13.00;99.90
8715;DHT22;4394;51.208;8.904;2024-03-02T17:37:49;12.90;99.90
8715;DHT22;4394;51.208;8.904;2024-03-02T17:40:38;12.90;99.90
8715;DHT22;4394;51.208;8.904;2024-03-02T17:43:30;12.80;99.90
8715;DHT22;4394;51.208;8.904;2024-03-02T17:46:19;12.70;99.90
8715;DHT22;4394;51.208;8.904;2024-03-02T17:49:07;12.60;99.90
8715;DHT22;4394;51.208;8.904;2024-03-02T17:51:56;12.60;99.90
8715;DHT22;4394;51.208;8.904;2024-03-02T17:54:45;12.50;99.90
8715;DHT22;4394;51.208;8.904;2024-03-02T17:57:34;12.50;99.90
8715;DHT22;4394;51.208;8.904;2024-03-02T18:00:27;12.30;99.90
8715;DHT22;4394;51.208;8.904;2024-03-02T18:03:16;12.40;99.90
8715;DHT22;4394;51.208;8.904;2024-03-02T18:06:05;12.40;99.90
8715;DHT22;4394;51.208;8.904;2024-03-02T18:08:56;12.30;99.90
8715;DHT22;4394;51.208;8.904;2024-03-02T18:11:45;12.30;99.90
8715;DHT22;4394;51.208;8.904;2024-03-02T18:14:33;12.30;99.90
8715;DHT22;4394;51.208;8.904;2024-03-02T18:17:27;12.30;99.90
8715;DHT22;4394;51.208;8.904;2024-03-02T18:20:16;12.20;99.90
8715;DHT22;4394;51.208;8.904;2024-03-02T18:23:04;12.10;99.90
8715;DHT22;4394;51.208;8.904;2024-03-02T18:25:53;12.10;99.90
8715;DHT22;4394;51.208;8.904;2024-03-02T18:28:45;12.00;99.90
8715;DHT22;4394;51.208;8.904;2024-03-02T18:31:34;12.00;99.90
8715;DHT22;4394;51.208;8.904;2024-03-02T18:34:24;11.90;99.90
8715;DHT22;4394;51.208;8.904;2024-03-02T18:37:13;11.80;99.90
8715;DHT22;4394;51.208;8.904;2024-03-02T18:40:05;11.80;99.90
8715;DHT22;4394;51.208;8.904;2024-03-02T18:42:53;11.70;99.90